Regan, ND (58477)

5:06 PM CDT on September 29, 2016 (GMT -0500)
136 Ave NW | | Change Station

Elev 1932 ft 46.95 °N, 100.83 °W | Updated 11 seconds ago

Clear
Clear
70.0 °F
Feels Like 70.0 °F
N
10.5
Wind Variable Wind from SSE
Gusts 12.3 mph

Today
High -- | Low -- °F
--% Chance of Precip.
Yesterday
High -- | Low -- °F
Precip. -- in
Pressure 30.27 in
Visibility 10.0 miles
Clouds Clear
Dew Point 53 °F
Humidity 55%
Rainfall 0.00 in
Snow Depth Not available.
7:39 AM 7:24 PM
Waning Crescent, 1% visible
METAR KBIS 292152Z 15016G23KT 10SM CLR 21/08 A3026 RMK AO2 SLP251 T02110078
Pressure 30.27 in
Visibility 10.0 miles
Clouds Clear
Dew Point 53 °F
Humidity 55%
Rainfall 0.00 in
Snow Depth Not available.
7:39 AM 7:24 PM
Waning Crescent, 1% visible
METAR KBIS 292152Z 15016G23KT 10SM CLR 21/08 A3026 RMK AO2 SLP251 T02110078

10-Day Weather Forecast

Almanac

Astronomy

Sep. 29, 2016 Rise Set
Actual Time
Civil Twilight
Nautical Twilight
Astronomical Twilight
Moon
Length of Visible Light
Length of Day
Tomorrow will be .
, % of the Moon is Illuminated

Today's Extremes

State Highs State Lows

Community

WunderPhotos

Upload Photos

1,942,584 photos uploaded!

WunderBlog® & News

Nearby

Air Quality

  Air Quality AQ Index Pollutant
Not available.

Snow Depth

Station Depth Elevation

Earthquake Activity

City Distance Mag. Time & Date
Minimum magnitude displayed is 2.5.

Coastal Water Temperatures

Place Temperature

Stations

Nearby Weather Stations

Station Location Temp. Windchill Dew Point Humidity Wind Precip. Elev Updated Type
                   

Watches & Warnings

There are currently no watches in effect.